Time;durP1;ratioP1;P1;durP2;ratioP2;P2;SDS_P1;SDS_P2;PMS_P1;PMS_P2;Temp;Humidity;BMP_temperature;BMP_pressure;BME280_temperature;BME280_humidity;BME280_pressure;Samples;Min_cycle;Max_cycle;Signal;HPM_P1;HPM_P2
2023/05/17 00:01:33;;;;;;;14.88;2.13;;;10.00;99.90;;;;;;5026474;28;20052;-34
2023/05/17 00:03:59;;;;;;;6.50;1.55;;;10.00;99.90;;;;;;5029203;28;20122;-34
2023/05/17 00:06:24;;;;;;;8.43;1.67;;;10.00;99.90;;;;;;5023910;28;20149;-34
2023/05/17 00:08:50;;;;;;;7.30;1.83;;;9.90;99.90;;;;;;5031651;28;20132;-34
2023/05/17 00:11:16;;;;;;;7.97;1.75;;;9.90;99.90;;;;;;5023594;28;20088;-34
2023/05/17 00:13:42;;;;;;;10.43;1.83;;;9.90;99.90;;;;;;5030143;28;20045;-33
2023/05/17 00:16:08;;;;;;;8.98;2.17;;;9.90;99.90;;;;;;5026510;28;20045;-34
2023/05/17 00:18:33;;;;;;;9.13;2.20;;;10.00;99.90;;;;;;5024678;28;20312;-35
2023/05/17 00:20:59;;;;;;;12.55;2.30;;;10.00;99.90;;;;;;5019965;28;20618;-36
2023/05/17 00:23:24;;;;;;;9.27;1.80;;;10.00;99.90;;;;;;5020038;28;20060;-34
2023/05/17 00:25:50;;;;;;;10.75;2.03;;;10.00;99.90;;;;;;5026441;28;20057;-34
2023/05/17 00:28:16;;;;;;;8.75;1.40;;;10.00;99.90;;;;;;5021279;28;20403;-34
2023/05/17 00:30:41;;;;;;;9.77;2.25;;;10.00;99.90;;;;;;5028890;28;20172;-34
2023/05/17 00:33:07;;;;;;;5.40;1.08;;;10.00;99.90;;;;;;5019589;28;20050;-34
2023/05/17 00:35:33;;;;;;;11.50;2.05;;;10.00;99.90;;;;;;5025914;28;20073;-36
2023/05/17 00:37:58;;;;;;;7.93;1.30;;;10.00;99.90;;;;;;5023547;28;20061;-34
2023/05/17 00:40:24;;;;;;;11.25;1.58;;;10.00;99.90;;;;;;5023638;28;20041;-34
2023/05/17 00:42:50;;;;;;;6.65;1.55;;;9.90;99.90;;;;;;5030199;28;20127;-33
2023/05/17 00:45:16;;;;;;;7.38;1.67;;;9.90;99.90;;;;;;5013452;28;20082;-34
2023/05/17 00:47:41;;;;;;;9.93;1.83;;;9.80;99.90;;;;;;5017918;28;20107;-36
2023/05/17 00:50:08;;;;;;;9.07;1.27;;;9.80;99.90;;;;;;5017810;28;20046;-36
2023/05/17 00:52:35;;;;;;;11.93;2.15;;;9.80;99.90;;;;;;5024100;28;20045;-34
2023/05/17 00:55:01;;;;;;;10.32;1.80;;;9.70;99.90;;;;;;5023568;28;20046;-34
2023/05/17 00:57:28;;;;;;;9.35;1.60;;;9.70;99.90;;;;;;5028519;28;20488;-34
2023/05/17 00:59:54;;;;;;;6.90;1.33;;;9.60;99.90;;;;;;5022755;28;20072;-34
2023/05/17 01:02:20;;;;;;;9.57;1.20;;;9.50;99.90;;;;;;5027871;28;20123;-33
2023/05/17 01:04:48;;;;;;;9.52;1.10;;;9.40;99.90;;;;;;5033220;28;20065;-34
2023/05/17 01:07:14;;;;;;;5.70;1.40;;;9.30;99.90;;;;;;5021525;28;20080;-34
2023/05/17 01:09:40;;;;;;;8.98;1.60;;;9.30;99.90;;;;;;5015846;28;20046;-34
2023/05/17 01:12:28;;;;;;;8.60;1.33;;;9.20;99.90;;;;;;5016744;28;20049;-34
2023/05/17 01:15:13;;;;;;;9.80;1.80;;;9.10;99.90;;;;;;5021340;28;20049;-34
2023/05/17 01:17:54;;;;;;;5.32;0.93;;;9.10;99.90;;;;;;5031257;28;20553;-34
2023/05/17 01:20:31;;;;;;;9.50;1.23;;;9.00;99.90;;;;;;5024689;28;20065;-34
2023/05/17 01:23:17;;;;;;;6.95;1.70;;;8.90;99.90;;;;;;5018688;28;20495;-34
2023/05/17 01:26:10;;;;;;;7.53;1.15;;;8.80;99.90;;;;;;5026047;28;20061;-34
2023/05/17 01:28:38;;;;;;;9.60;1.45;;;8.80;99.90;;;;;;5016807;28;20097;-34
2023/05/17 01:31:06;;;;;;;11.43;1.77;;;8.70;99.90;;;;;;5020144;28;20386;-34
2023/05/17 01:33:32;;;;;;;7.25;1.75;;;8.70;99.90;;;;;;5030542;28;20064;-34
2023/05/17 01:35:58;;;;;;;8.50;1.70;;;8.60;99.90;;;;;;5036818;28;20057;-34
2023/05/17 01:38:24;;;;;;;12.07;2.20;;;8.50;99.90;;;;;;5027153;28;20618;-34
2023/05/17 01:41:09;;;;;;;12.32;2.30;;;8.50;99.90;;;;;;5020536;28;20455;-36
2023/05/17 01:43:46;;;;;;;7.40;1.20;;;8.40;99.90;;;;;;5033237;28;20049;-36
2023/05/17 01:46:20;;;;;;;9.85;1.33;;;8.40;99.90;;;;;;5017775;28;20499;-34
2023/05/17 01:48:59;;;;;;;6.65;1.30;;;8.30;99.90;;;;;;5027593;28;20061;-34
2023/05/17 01:51:31;;;;;;;7.10;1.15;;;8.30;99.90;;;;;;5027188;28;20534;-34
2023/05/17 01:54:08;;;;;;;10.93;2.08;;;8.20;99.90;;;;;;5035431;28;20127;-34
2023/05/17 01:56:35;;;;;;;11.77;1.58;;;8.20;99.90;;;;;;5032044;28;20472;-34
2023/05/17 01:59:04;;;;;;;11.20;1.60;;;8.10;99.90;;;;;;5032746;28;20052;-34
2023/05/17 02:01:30;;;;;;;5.88;1.10;;;8.10;99.90;;;;;;5026223;28;20049;-34
2023/05/17 02:03:57;;;;;;;11.75;1.63;;;8.10;99.90;;;;;;5025578;28;20057;-34
2023/05/17 02:06:23;;;;;;;7.63;1.33;;;8.00;99.90;;;;;;5018897;28;20168;-34
2023/05/17 02:08:48;;;;;;;8.80;1.13;;;8.00;99.90;;;;;;5025234;28;20551;-34
2023/05/17 02:11:14;;;;;;;8.45;0.93;;;8.00;99.90;;;;;;5028001;28;20058;-34
2023/05/17 02:13:39;;;;;;;8.27;1.30;;;8.00;99.90;;;;;;5020923;28;20045;-34
2023/05/17 02:16:05;;;;;;;8.05;1.35;;;8.00;99.90;;;;;;5018979;28;20131;-34
2023/05/17 02:18:33;;;;;;;9.55;1.20;;;7.90;99.90;;;;;;5021924;28;20049;-34
2023/05/17 02:20:59;;;;;;;7.75;1.75;;;7.90;99.90;;;;;;5032232;28;20095;-34
2023/05/17 02:23:26;;;;;;;9.13;1.42;;;7.80;99.90;;;;;;5021650;28;20045;-34
2023/05/17 02:25:52;;;;;;;8.48;1.30;;;7.80;99.90;;;;;;5022634;28;20073;-36
2023/05/17 02:28:17;;;;;;;10.10;1.48;;;7.80;99.90;;;;;;5018208;28;20116;-34
2023/05/17 02:30:44;;;;;;;9.50;1.65;;;7.80;99.90;;;;;;5035469;28;20065;-35
2023/05/17 02:33:10;;;;;;;9.93;1.00;;;7.80;99.90;;;;;;5026015;28;20144;-35
2023/05/17 02:35:36;;;;;;;5.93;0.90;;;7.70;99.90;;;;;;5029345;28;20124;-34
2023/05/17 02:38:01;;;;;;;9.27;1.52;;;7.70;99.90;;;;;;5018912;28;20159;-34
2023/05/17 02:40:27;;;;;;;9.63;2.08;;;7.70;99.90;;;;;;5031715;28;20045;-35
2023/05/17 02:42:52;;;;;;;9.02;1.30;;;7.60;99.90;;;;;;5024299;28;20053;-35
2023/05/17 02:45:18;;;;;;;7.75;1.13;;;7.70;99.90;;;;;;5018743;28;20058;-35
2023/05/17 02:47:44;;;;;;;10.68;1.20;;;7.60;99.90;;;;;;5027425;28;20065;-34
2023/05/17 02:50:09;;;;;;;5.90;1.45;;;7.60;99.90;;;;;;5023754;28;20060;-34
2023/05/17 02:52:35;;;;;;;8.48;0.82;;;7.60;99.90;;;;;;5020655;28;20045;-34
2023/05/17 02:55:01;;;;;;;12.00;1.40;;;7.60;99.90;;;;;;5032276;28;20546;-35
2023/05/17 02:57:26;;;;;;;9.70;1.10;;;7.60;99.90;;;;;;5027926;28;20057;-34
2023/05/17 02:59:52;;;;;;;6.55;1.13;;;7.60;99.90;;;;;;5013824;28;20056;-35
2023/05/17 03:02:18;;;;;;;5.03;0.93;;;7.60;99.90;;;;;;5022455;28;20049;-35
2023/05/17 03:04:43;;;;;;;9.20;1.10;;;7.60;99.90;;;;;;5014053;28;20057;-34
2023/05/17 03:07:10;;;;;;;5.38;1.48;;;7.60;99.90;;;;;;5014528;28;20577;-34
2023/05/17 03:09:36;;;;;;;5.55;1.05;;;7.60;99.90;;;;;;5023783;28;20060;-34
2023/05/17 03:12:02;;;;;;;7.38;1.15;;;7.60;99.90;;;;;;5026915;28;20049;-35
2023/05/17 03:14:27;;;;;;;5.05;0.90;;;7.60;99.90;;;;;;5021797;28;20081;-35
2023/05/17 03:16:53;;;;;;;9.25;1.13;;;7.60;99.90;;;;;;5022336;28;20096;-35
2023/05/17 03:19:19;;;;;;;9.48;1.20;;;7.60;99.90;;;;;;5026576;28;20145;-35
2023/05/17 03:21:45;;;;;;;9.27;1.15;;;7.70;99.90;;;;;;5021600;28;20053;-34
2023/05/17 03:24:10;;;;;;;7.55;1.52;;;7.80;99.90;;;;;;5019816;28;20049;-34
2023/05/17 03:26:36;;;;;;;11.82;1.83;;;7.90;99.90;;;;;;5031661;28;20053;-35
2023/05/17 03:29:01;;;;;;;7.93;1.33;;;7.90;99.90;;;;;;5024419;28;20507;-34
2023/05/17 03:31:27;;;;;;;8.10;1.15;;;8.00;99.90;;;;;;5022090;28;20045;-34
2023/05/17 03:33:53;;;;;;;8.27;1.33;;;8.00;99.90;;;;;;5025672;28;20222;-34
2023/05/17 03:36:19;;;;;;;6.18;1.08;;;8.10;99.90;;;;;;5023314;28;20205;-35
2023/05/17 03:38:44;;;;;;;7.60;1.45;;;8.10;99.90;;;;;;5024098;28;20143;-35
2023/05/17 03:41:11;;;;;;;9.65;1.67;;;8.10;99.90;;;;;;5028541;28;20057;-34
2023/05/17 03:43:36;;;;;;;8.75;1.55;;;8.20;99.90;;;;;;5022871;28;20064;-34
2023/05/17 03:46:02;;;;;;;8.60;1.45;;;8.20;99.90;;;;;;5027755;28;20049;-35
2023/05/17 03:48:28;;;;;;;8.05;1.00;;;8.20;99.90;;;;;;5029734;28;20041;-35
2023/05/17 03:50:54;;;;;;;11.88;2.00;;;8.20;99.90;;;;;;5030447;28;20131;-35
2023/05/17 03:53:20;;;;;;;9.75;1.63;;;8.20;99.90;;;;;;5034323;28;20049;-34
2023/05/17 03:55:45;;;;;;;10.07;1.30;;;8.20;99.90;;;;;;5033037;28;20124;-35
2023/05/17 03:58:11;;;;;;;9.98;1.20;;;8.10;99.90;;;;;;5023813;28;20148;-34
2023/05/17 04:00:37;;;;;;;8.45;1.20;;;8.10;99.90;;;;;;5033156;28;20406;-34
2023/05/17 04:03:02;;;;;;;7.85;1.33;;;8.00;99.90;;;;;;5038389;28;20147;-34
2023/05/17 04:05:28;;;;;;;8.18;1.75;;;8.00;99.90;;;;;;5042564;28;20069;-35
2023/05/17 04:07:53;;;;;;;8.18;1.55;;;8.00;99.90;;;;;;5017696;28;20041;-34
2023/05/17 04:10:19;;;;;;;7.63;1.35;;;8.00;99.90;;;;;;5021793;28;20466;-35
2023/05/17 04:12:45;;;;;;;6.30;1.05;;;7.90;99.90;;;;;;5027985;28;20042;-35
2023/05/17 04:15:10;;;;;;;8.25;0.95;;;7.90;99.90;;;;;;5014523;28;20103;-34
2023/05/17 04:17:36;;;;;;;5.60;1.27;;;7.90;99.90;;;;;;5026433;28;20064;-35
2023/05/17 04:20:05;;;;;;;9.27;1.33;;;7.90;99.90;;;;;;5026516;28;20429;-35
2023/05/17 04:22:31;;;;;;;7.40;1.30;;;7.90;99.90;;;;;;5021996;28;20046;-34
2023/05/17 04:24:56;;;;;;;5.78;1.42;;;7.90;99.90;;;;;;5030217;28;20053;-35
2023/05/17 04:27:22;;;;;;;9.23;1.10;;;8.00;99.90;;;;;;5020421;28;20057;-35
2023/05/17 04:29:48;;;;;;;9.15;1.73;;;8.00;99.90;;;;;;5017692;28;20050;-34
2023/05/17 04:32:13;;;;;;;9.15;1.83;;;8.00;99.90;;;;;;5019296;28;20054;-34
2023/05/17 04:34:40;;;;;;;5.97;1.25;;;8.00;99.90;;;;;;5023356;28;20068;-35
2023/05/17 04:37:06;;;;;;;6.18;1.65;;;8.00;99.90;;;;;;5021507;28;20052;-35
2023/05/17 04:39:32;;;;;;;12.20;1.92;;;8.00;99.90;;;;;;5031696;28;20059;-35
2023/05/17 04:41:57;;;;;;;11.68;1.58;;;8.00;99.90;;;;;;5029076;28;20045;-34
2023/05/17 04:44:23;;;;;;;7.32;1.67;;;8.00;99.90;;;;;;5023233;28;20527;-34
2023/05/17 04:46:49;;;;;;;7.10;1.38;;;8.00;99.90;;;;;;5024957;28;20056;-34
2023/05/17 04:49:14;;;;;;;12.45;1.70;;;8.00;99.90;;;;;;5031418;28;20110;-34
2023/05/17 04:51:40;;;;;;;10.65;1.35;;;8.00;99.90;;;;;;5035772;28;20057;-34
2023/05/17 04:54:07;;;;;;;8.40;2.00;;;8.10;99.90;;;;;;5021601;28;20061;-35
2023/05/17 04:56:35;;;;;;;10.80;1.77;;;8.10;99.90;;;;;;5024896;28;20055;-35
2023/05/17 04:59:01;;;;;;;6.78;1.15;;;8.10;99.90;;;;;;5016535;28;20541;-35
2023/05/17 05:01:29;;;;;;;7.63;1.42;;;8.10;99.90;;;;;;5034996;28;20042;-34
2023/05/17 05:03:56;;;;;;;6.85;1.15;;;8.10;99.90;;;;;;5023227;28;20052;-34
2023/05/17 05:06:22;;;;;;;10.20;1.30;;;8.20;99.90;;;;;;5019059;28;20057;-34
2023/05/17 05:08:48;;;;;;;6.43;1.00;;;8.20;99.90;;;;;;5025192;28;20055;-34
2023/05/17 05:11:13;;;;;;;4.88;1.20;;;8.20;99.90;;;;;;5030701;28;20053;-34
2023/05/17 05:13:40;;;;;;;8.20;1.00;;;8.30;99.90;;;;;;5028341;28;20055;-34
2023/05/17 05:16:07;;;;;;;10.00;1.63;;;8.40;99.90;;;;;;5024285;28;20201;-34
2023/05/17 05:18:32;;;;;;;6.28;1.23;;;8.50;99.90;;;;;;5023019;28;20422;-34
2023/05/17 05:20:59;;;;;;;4.88;0.90;;;8.60;99.90;;;;;;5022571;28;20051;-34
2023/05/17 05:23:24;;;;;;;11.77;1.52;;;8.70;99.90;;;;;;5025313;28;20053;-34
2023/05/17 05:25:50;;;;;;;8.23;1.08;;;8.80;99.90;;;;;;5015400;28;20397;-34
2023/05/17 05:28:16;;;;;;;6.00;0.90;;;8.90;99.90;;;;;;5020411;28;20128;-36
2023/05/17 05:30:41;;;;;;;7.55;0.90;;;9.10;99.90;;;;;;5025829;28;20094;-34
2023/05/17 05:33:07;;;;;;;5.18;0.73;;;9.10;99.90;;;;;;5022634;28;20053;-34
2023/05/17 05:35:32;;;;;;;4.68;0.77;;;9.20;99.90;;;;;;5019463;28;20454;-34
2023/05/17 05:37:59;;;;;;;5.32;1.92;;;9.30;99.90;;;;;;5034709;28;20424;-34
2023/05/17 05:40:25;;;;;;;10.18;1.05;;;9.30;99.90;;;;;;5019230;28;20080;-34
2023/05/17 05:42:51;;;;;;;3.75;0.65;;;9.40;99.90;;;;;;5023849;28;20423;-33
2023/05/17 05:45:17;;;;;;;5.22;0.82;;;9.40;99.90;;;;;;5018908;28;20062;-33
2023/05/17 05:47:43;;;;;;;8.05;1.00;;;9.50;99.90;;;;;;5020869;28;20483;-34
2023/05/17 05:50:09;;;;;;;2.40;0.50;;;9.60;99.90;;;;;;5014922;28;20080;-34
2023/05/17 05:52:35;;;;;;;7.50;0.77;;;9.60;99.90;;;;;;5016087;28;20403;-33
2023/05/17 05:55:01;;;;;;;2.65;0.65;;;9.70;99.90;;;;;;5026479;28;20045;-34
2023/05/17 05:57:26;;;;;;;6.38;0.63;;;9.70;99.90;;;;;;5023425;28;20054;-34
2023/05/17 05:59:52;;;;;;;4.35;0.68;;;9.70;99.90;;;;;;5026881;28;20098;-34
2023/05/17 06:02:18;;;;;;;5.50;1.67;;;9.70;99.90;;;;;;5035937;28;20519;-34
2023/05/17 06:04:48;;;;;;;8.93;0.70;;;9.70;99.90;;;;;;5030717;28;20045;-34
2023/05/17 06:07:14;;;;;;;3.08;0.65;;;9.70;99.90;;;;;;5024641;28;20067;-34
2023/05/17 06:09:40;;;;;;;4.35;0.70;;;9.70;99.90;;;;;;5016102;28;20053;-34
2023/05/17 06:12:06;;;;;;;5.10;0.65;;;9.60;99.90;;;;;;5029513;28;20045;-34
2023/05/17 06:14:32;;;;;;;5.50;0.60;;;9.60;99.90;;;;;;5013573;28;20054;-34
2023/05/17 06:16:58;;;;;;;3.65;0.68;;;9.60;99.90;;;;;;5019084;28;20045;-34
2023/05/17 06:19:24;;;;;;;3.80;0.40;;;9.60;99.90;;;;;;5025513;28;20049;-34
2023/05/17 06:21:50;;;;;;;4.32;0.63;;;9.60;99.90;;;;;;5030225;28;20488;-36
2023/05/17 06:24:15;;;;;;;7.82;0.82;;;9.60;99.90;;;;;;5028184;28;20076;-36
2023/05/17 06:26:42;;;;;;;4.03;0.65;;;9.60;99.90;;;;;;5022372;28;20464;-36
2023/05/17 06:29:09;;;;;;;3.40;0.50;;;9.70;99.90;;;;;;5014452;28;20045;-34
2023/05/17 06:31:34;;;;;;;8.50;0.77;;;9.80;99.90;;;;;;5024535;28;20045;-34
2023/05/17 06:34:00;;;;;;;7.05;0.68;;;9.90;99.90;;;;;;5012205;28;20067;-33
2023/05/17 06:36:26;;;;;;;3.95;0.60;;;10.00;99.90;;;;;;5031893;28;20059;-36
2023/05/17 06:38:52;;;;;;;2.67;0.50;;;10.10;99.90;;;;;;5026873;28;20054;-36
2023/05/17 06:41:18;;;;;;;4.95;0.60;;;10.20;99.90;;;;;;5023046;28;20470;-36
2023/05/17 06:43:44;;;;;;;3.63;0.40;;;10.40;99.90;;;;;;5035543;28;20132;-34
2023/05/17 06:46:10;;;;;;;4.68;0.60;;;10.50;99.90;;;;;;5023464;28;20491;-34
2023/05/17 06:48:36;;;;;;;3.20;0.75;;;10.70;99.90;;;;;;5021148;28;20049;-34
2023/05/17 06:51:01;;;;;;;6.07;1.02;;;10.70;99.90;;;;;;5022803;28;20588;-34
2023/05/17 06:53:27;;;;;;;5.47;0.98;;;10.80;99.90;;;;;;5030783;28;20056;-35
2023/05/17 06:55:53;;;;;;;4.40;0.60;;;10.90;99.90;;;;;;5019763;28;20042;-34
2023/05/17 06:58:21;;;;;;;5.45;0.93;;;11.00;99.90;;;;;;5012518;28;20054;-34
2023/05/17 07:00:47;;;;;;;5.88;0.88;;;11.00;99.90;;;;;;5017032;28;20557;-34
2023/05/17 07:03:12;;;;;;;5.53;1.30;;;11.10;99.90;;;;;;5015940;28;20066;-34
2023/05/17 07:05:38;;;;;;;4.45;0.70;;;11.10;99.90;;;;;;5011480;28;20054;-34
2023/05/17 07:08:04;;;;;;;5.05;0.75;;;11.10;99.90;;;;;;5010487;28;20596;-34
2023/05/17 07:10:30;;;;;;;4.55;0.60;;;11.10;99.90;;;;;;5024077;28;20143;-34
2023/05/17 07:12:55;;;;;;;5.07;0.70;;;11.20;99.90;;;;;;5014525;28;20078;-34
2023/05/17 07:15:21;;;;;;;10.30;1.02;;;11.20;99.90;;;;;;5022416;28;20053;-34
2023/05/17 07:17:47;;;;;;;2.67;0.50;;;11.20;99.90;;;;;;5014977;28;20423;-34
2023/05/17 07:20:13;;;;;;;7.25;0.60;;;11.30;99.90;;;;;;5013440;28;20129;-34
2023/05/17 07:22:39;;;;;;;6.03;0.82;;;11.40;99.90;;;;;;5025088;28;20045;-34
2023/05/17 07:25:05;;;;;;;10.18;0.70;;;11.50;99.90;;;;;;5026807;28;20056;-34
2023/05/17 07:27:31;;;;;;;3.30;0.65;;;11.50;99.90;;;;;;5016132;28;20119;-34
2023/05/17 07:29:57;;;;;;;3.40;0.52;;;11.50;99.90;;;;;;5010760;28;20058;-33
2023/05/17 07:32:22;;;;;;;6.70;0.68;;;11.60;99.90;;;;;;5020266;28;20060;-35
2023/05/17 07:34:48;;;;;;;7.18;0.95;;;11.70;99.90;;;;;;5023444;28;20155;-34
2023/05/17 07:37:14;;;;;;;6.97;1.10;;;11.90;99.90;;;;;;5017102;28;20408;-34
2023/05/17 07:39:39;;;;;;;5.63;0.68;;;11.90;99.90;;;;;;5020204;28;20046;-34
2023/05/17 07:42:06;;;;;;;4.13;0.45;;;12.00;99.90;;;;;;5025701;28;20514;-34
2023/05/17 07:44:31;;;;;;;7.25;0.93;;;12.00;99.90;;;;;;5014342;28;20045;-35
2023/05/17 07:46:57;;;;;;;6.10;1.05;;;11.90;99.90;;;;;;5023735;28;20057;-35
2023/05/17 07:49:23;;;;;;;2.65;0.40;;;11.90;99.90;;;;;;5028706;28;20091;-34
2023/05/17 07:51:49;;;;;;;4.25;0.52;;;11.80;99.90;;;;;;5022660;28;20058;-35
2023/05/17 07:54:28;;;;;;;6.97;0.68;;;11.80;99.90;;;;;;5016968;28;20081;-35
2023/05/17 07:56:54;;;;;;;8.73;1.15;;;11.70;99.90;;;;;;5022736;28;20111;-35
2023/05/17 07:59:23;;;;;;;2.92;0.80;;;11.80;99.90;;;;;;5025800;28;20487;-35
2023/05/17 08:01:49;;;;;;;2.95;0.50;;;11.90;99.90;;;;;;5021442;28;20401;-35
2023/05/17 08:04:15;;;;;;;6.45;0.70;;;11.90;99.90;;;;;;5030739;28;20496;-35
2023/05/17 08:06:42;;;;;;;6.53;0.70;;;11.90;99.90;;;;;;5015816;28;20115;-35
2023/05/17 08:09:08;;;;;;;3.50;0.98;;;11.80;99.90;;;;;;5025378;28;20053;-34
2023/05/17 08:11:33;;;;;;;6.80;0.60;;;11.70;99.90;;;;;;5027496;28;20057;-35
2023/05/17 08:13:59;;;;;;;4.65;1.02;;;11.70;99.90;;;;;;5034343;28;20049;-35
2023/05/17 08:16:25;;;;;;;6.38;0.80;;;11.90;99.90;;;;;;5024330;28;20514;-35
2023/05/17 08:18:51;;;;;;;7.95;0.90;;;12.20;99.90;;;;;;5018990;28;20054;-34
2023/05/17 08:21:16;;;;;;;7.22;0.80;;;12.40;99.90;;;;;;5015524;28;20049;-35
2023/05/17 08:23:43;;;;;;;7.78;1.00;;;12.50;99.90;;;;;;5026615;28;20405;-35
2023/05/17 08:26:08;;;;;;;8.43;0.60;;;12.40;99.90;;;;;;5013175;28;20593;-34
2023/05/17 08:28:34;;;;;;;6.60;1.02;;;12.30;99.90;;;;;;5022507;28;20054;-35
2023/05/17 08:31:00;;;;;;;6.65;0.80;;;12.20;99.90;;;;;;5021277;28;20116;-35
2023/05/17 08:33:26;;;;;;;4.20;0.60;;;12.30;99.90;;;;;;5035730;28;20488;-35
2023/05/17 08:35:54;;;;;;;6.65;0.80;;;12.40;99.90;;;;;;5019957;28;20173;-35
2023/05/17 08:38:22;;;;;;;6.70;0.70;;;12.60;99.90;;;;;;5020082;28;20522;-34
2023/05/17 08:40:53;;;;;;;8.05;1.40;;;12.70;99.90;;;;;;5026065;28;20058;-34
2023/05/17 08:43:20;;;;;;;6.35;1.00;;;12.70;99.90;;;;;;5022650;28;20053;-34
2023/05/17 08:45:48;;;;;;;4.30;0.50;;;12.80;99.90;;;;;;5026651;28;20057;-35
2023/05/17 08:48:16;;;;;;;7.85;0.70;;;12.80;99.90;;;;;;5025148;28;20562;-35
2023/05/17 08:50:43;;;;;;;5.18;0.73;;;12.90;99.90;;;;;;5023727;28;20046;-36
2023/05/17 08:53:10;;;;;;;12.90;1.05;;;13.00;99.90;;;;;;5039113;28;20080;-36
2023/05/17 08:55:36;;;;;;;7.07;0.75;;;13.00;99.90;;;;;;5022956;28;20049;-35
2023/05/17 08:58:04;;;;;;;5.85;0.77;;;12.80;99.90;;;;;;5021087;28;20123;-35
2023/05/17 09:00:32;;;;;;;5.60;0.70;;;12.80;99.90;;;;;;5024514;28;20049;-36
2023/05/17 09:02:59;;;;;;;4.50;0.80;;;12.80;99.90;;;;;;5025797;28;20467;-35
2023/05/17 09:05:25;;;;;;;7.80;0.98;;;12.90;99.90;;;;;;5024994;28;20046;-35
2023/05/17 09:07:52;;;;;;;9.55;0.98;;;13.00;99.90;;;;;;5038749;28;20137;-35
2023/05/17 09:10:18;;;;;;;8.90;1.00;;;13.00;99.90;;;;;;5031764;28;20474;-35
2023/05/17 09:12:44;;;;;;;4.45;0.57;;;13.20;99.90;;;;;;5036989;28;20068;-35
2023/05/17 09:15:13;;;;;;;3.83;0.68;;;13.40;99.90;;;;;;5035483;28;20553;-35
2023/05/17 09:17:40;;;;;;;10.50;1.52;;;13.50;99.90;;;;;;5038833;28;20447;-35
2023/05/17 09:20:07;;;;;;;6.82;0.85;;;13.40;99.90;;;;;;5026166;28;20041;-35
2023/05/17 09:22:34;;;;;;;7.40;0.90;;;13.40;99.90;;;;;;5038012;28;20045;-35
2023/05/17 09:25:03;;;;;;;3.63;0.73;;;13.40;99.90;;;;;;5030655;28;20050;-35
2023/05/17 09:27:30;;;;;;;5.88;1.50;;;13.50;99.90;;;;;;5030062;28;20080;-35
2023/05/17 09:29:57;;;;;;;6.85;0.82;;;13.50;99.90;;;;;;5030738;28;20080;-35
2023/05/17 09:32:23;;;;;;;6.15;1.30;;;13.60;99.90;;;;;;5029088;28;20060;-35
2023/05/17 09:34:55;;;;;;;6.13;0.50;;;13.80;99.90;;;;;;5028157;28;20061;-35
2023/05/17 09:37:21;;;;;;;10.95;0.73;;;14.00;99.90;;;;;;5037982;28;20582;-35
2023/05/17 09:39:47;;;;;;;8.43;1.30;;;13.90;99.90;;;;;;5029709;28;20526;-35
2023/05/17 09:42:15;;;;;;;6.05;0.80;;;13.80;99.90;;;;;;5036799;28;20530;-35
2023/05/17 09:44:52;;;;;;;4.38;0.68;;;13.80;99.90;;;;;;5020706;28;20050;-35
2023/05/17 09:47:28;;;;;;;3.67;1.17;;;14.00;99.90;;;;;;5016560;28;20525;-35
2023/05/17 09:50:01;;;;;;;8.52;1.40;;;14.10;99.90;;;;;;5013272;28;20062;-35
2023/05/17 09:52:30;;;;;;;7.78;1.00;;;14.30;99.90;;;;;;5028709;28;20061;-35
2023/05/17 09:54:59;;;;;;;4.10;0.63;;;14.40;99.90;;;;;;5023008;28;20089;-35
2023/05/17 09:57:27;;;;;;;5.63;0.80;;;14.50;99.90;;;;;;5023305;28;20053;-35
2023/05/17 09:59:56;;;;;;;5.18;0.90;;;14.40;99.90;;;;;;5020916;28;20416;-35
2023/05/17 10:02:27;;;;;;;5.65;0.65;;;14.30;99.90;;;;;;5021627;28;20060;-35
2023/05/17 10:04:56;;;;;;;7.78;0.95;;;14.30;99.90;;;;;;5023919;28;20061;-35
2023/05/17 10:07:24;;;;;;;9.48;1.20;;;14.40;99.90;;;;;;5030587;28;20492;-35
2023/05/17 10:09:51;;;;;;;6.22;1.05;;;14.50;99.90;;;;;;5015986;28;20511;-35
2023/05/17 10:12:22;;;;;;;8.40;0.93;;;14.50;99.90;;;;;;5013485;28;20056;-35
2023/05/17 10:14:49;;;;;;;4.38;1.05;;;14.60;99.90;;;;;;5015251;28;20133;-35
2023/05/17 10:17:16;;;;;;;11.10;0.90;;;14.50;99.90;;;;;;5021538;28;20143;-35
2023/05/17 10:19:42;;;;;;;6.50;1.00;;;14.60;99.90;;;;;;5014279;28;20073;-35
2023/05/17 10:22:08;;;;;;;8.85;1.20;;;14.70;99.90;;;;;;5017123;28;20095;-35
2023/05/17 10:24:38;;;;;;;6.72;0.85;;;14.90;99.90;;;;;;5018310;28;20057;-35
2023/05/17 10:27:06;;;;;;;7.82;1.02;;;15.00;99.90;;;;;;5014168;28;20140;-35
2023/05/17 10:29:32;;;;;;;10.40;1.00;;;15.10;99.90;;;;;;5024938;28;20053;-35
2023/05/17 10:32:01;;;;;;;4.93;0.77;;;15.10;99.90;;;;;;5024940;28;20483;-35
2023/05/17 10:34:29;;;;;;;4.15;0.95;;;15.10;99.90;;;;;;5025023;28;20081;-35
2023/05/17 10:36:56;;;;;;;4.93;0.82;;;15.10;99.90;;;;;;5025949;28;20094;-35
2023/05/17 10:39:23;;;;;;;7.00;0.70;;;15.20;99.90;;;;;;5021890;28;20054;-35
2023/05/17 10:41:52;;;;;;;5.28;0.90;;;15.30;99.90;;;;;;5016261;28;20099;-35
2023/05/17 10:44:18;;;;;;;6.03;0.75;;;15.40;99.90;;;;;;5019541;28;20558;-35
2023/05/17 10:46:54;;;;;;;4.75;0.80;;;15.60;99.90;;;;;;5023651;28;20089;-35
2023/05/17 10:49:24;;;;;;;4.10;0.77;;;15.90;99.90;;;;;;5023584;28;20077;-35
2023/05/17 10:51:50;;;;;;;8.57;1.08;;;16.10;99.90;;;;;;5013322;28;20054;-35
2023/05/17 10:54:17;;;;;;;5.43;0.77;;;16.00;99.90;;;;;;5026372;28;20064;-35
2023/05/17 10:57:04;;;;;;;3.92;0.60;;;15.90;99.90;;;;;;5017148;28;20487;-35
2023/05/17 10:59:31;;;;;;;7.22;0.90;;;15.60;99.90;;;;;;5017424;28;20503;-35
2023/05/17 11:02:06;;;;;;;6.75;0.90;;;15.60;99.90;;;;;;5018569;28;20037;-35
2023/05/17 11:04:34;;;;;;;7.97;0.88;;;15.80;99.90;;;;;;5028089;28;20060;-35
2023/05/17 11:07:20;;;;;;;4.28;0.80;;;16.20;99.90;;;;;;5019172;28;20468;-35
2023/05/17 11:10:15;;;;;;;7.65;0.75;;;16.30;99.90;;;;;;5018022;28;20107;-36
2023/05/17 11:12:46;;;;;;;4.68;0.65;;;16.20;99.90;;;;;;5019280;28;20506;-35
2023/05/17 11:15:16;;;;;;;6.25;0.88;;;16.10;99.90;;;;;;5017988;28;20087;-35
2023/05/17 11:17:41;;;;;;;6.15;1.15;;;16.00;99.90;;;;;;5028275;28;20054;-35
2023/05/17 11:20:13;;;;;;;6.20;1.05;;;15.80;99.90;;;;;;5018269;28;20568;-35
2023/05/17 11:22:48;;;;;;;6.60;1.17;;;15.80;99.90;;;;;;5012290;28;20062;-35
2023/05/17 11:25:15;;;;;;;8.07;0.82;;;15.90;99.90;;;;;;5016041;28;20059;-35
2023/05/17 11:27:48;;;;;;;7.78;0.82;;;15.90;99.90;;;;;;5018478;28;20563;-35
2023/05/17 11:30:27;;;;;;;6.32;0.65;;;15.80;99.90;;;;;;5023122;28;20049;-35
2023/05/17 11:33:01;;;;;;;5.35;0.80;;;15.80;99.90;;;;;;5017300;28;20045;-35
2023/05/17 11:35:32;;;;;;;4.20;0.80;;;16.00;99.90;;;;;;5014473;28;20050;-35
2023/05/17 11:38:22;;;;;;;3.00;0.50;;;16.30;99.90;;;;;;5019745;28;20049;-35
2023/05/17 11:40:51;;;;;;;6.25;1.23;;;16.30;99.90;;;;;;5022160;28;20054;-35
2023/05/17 11:43:20;;;;;;;2.25;0.70;;;16.10;99.90;;;;;;5006659;28;20403;-35
2023/05/17 11:45:49;;;;;;;3.33;0.82;;;16.10;99.90;;;;;;5018314;28;20058;-35
2023/05/17 11:48:15;;;;;;;7.15;0.68;;;16.40;99.90;;;;;;5013592;28;20050;-35
2023/05/17 11:50:43;;;;;;;6.82;1.00;;;16.60;99.90;;;;;;5019597;28;20067;-35
2023/05/17 11:53:10;;;;;;;8.07;1.30;;;16.70;99.90;;;;;;5030778;28;20068;-35
2023/05/17 11:55:47;;;;;;;10.50;1.17;;;16.60;99.90;;;;;;5017451;28;20108;-35
2023/05/17 11:58:14;;;;;;;8.40;1.50;;;16.50;99.90;;;;;;5015306;28;20141;-35
2023/05/17 12:00:41;;;;;;;4.95;0.70;;;16.30;99.90;;;;;;5013551;28;20050;-35
2023/05/17 12:03:21;;;;;;;6.05;1.10;;;16.30;99.90;;;;;;5018022;28;20548;-35
2023/05/17 12:05:48;;;;;;;3.45;0.95;;;16.60;99.90;;;;;;5023072;28;20061;-35
2023/05/17 12:08:16;;;;;;;5.85;0.95;;;16.70;99.90;;;;;;5025995;28;20044;-35
2023/05/17 12:10:49;;;;;;;6.95;1.13;;;16.70;99.90;;;;;;5026514;28;20144;-35
2023/05/17 12:13:15;;;;;;;3.08;0.80;;;16.70;99.90;;;;;;5017544;28;20045;-35
2023/05/17 12:15:45;;;;;;;6.88;2.53;;;16.50;99.90;;;;;;5025611;28;20410;-35
2023/05/17 12:18:11;;;;;;;6.25;0.98;;;16.50;99.90;;;;;;5041563;28;20041;-36
2023/05/17 12:20:37;;;;;;;4.63;1.23;;;16.50;99.90;;;;;;5025838;28;20057;-35
2023/05/17 12:23:03;;;;;;;3.53;1.05;;;16.70;99.90;;;;;;5021855;28;20407;-35
2023/05/17 12:25:29;;;;;;;4.32;0.50;;;16.60;99.90;;;;;;5018810;28;20050;-35
2023/05/17 12:28:13;;;;;;;5.43;0.73;;;16.60;99.90;;;;;;5020395;28;20521;-35
2023/05/17 12:30:39;;;;;;;5.82;0.90;;;16.50;99.90;;;;;;5017520;28;20092;-35
2023/05/17 12:33:06;;;;;;;4.70;0.63;;;16.70;99.90;;;;;;5018731;28;20045;-36
2023/05/17 12:35:32;;;;;;;4.05;0.60;;;16.90;99.90;;;;;;5020676;28;20056;-35
2023/05/17 12:37:58;;;;;;;4.25;0.70;;;17.20;99.90;;;;;;5027325;28;20041;-36
2023/05/17 12:40:24;;;;;;;7.50;1.00;;;17.40;99.90;;;;;;5023177;28;20054;-35
2023/05/17 12:42:50;;;;;;;4.35;0.88;;;17.40;99.90;;;;;;5017132;28;20053;-35
2023/05/17 12:45:16;;;;;;;5.13;0.98;;;17.40;99.90;;;;;;5017047;28;20080;-35
2023/05/17 12:47:42;;;;;;;5.82;0.68;;;17.60;99.90;;;;;;5019642;28;20093;-36
2023/05/17 12:50:08;;;;;;;3.47;0.60;;;17.50;99.90;;;;;;5030315;28;20164;-36
2023/05/17 12:52:37;;;;;;;3.70;0.65;;;17.40;99.90;;;;;;5021553;28;20067;-35